EGXS

RAF Swinderby Airport

Swinderby, United Kingdom
METAR EGXS 201350Z AUTO 09010KT 9999 // SCT090/// 20/15 Q1013
Observed Flight Rules
Jul-20 @ 13:50 UTC (42 minutes ago) Visual Flight Rules
Wind Visibility Clouds
90° at 10 knots 10,000+ meters
  • Scattered at 9,000' AGL
Temperatures Readings
Current 20°C / 68°F
Dewpoint 15°C / 59°F
Humidity 73%
Altimeter 29.91" Hg
Pressure 1013 hPa
Elevation 3
METAR EGXS 201350Z AUTO 09010KT 9999 // SCT090/// 20/15 Q1013
Observed Flight Rules
Jul-20 @ 13:50 UTC
(42 minutes ago)
VFR
Wind Visibility
90° at 10 knots 10,000+ meters
Clouds
  • Scattered at 9,000' AGL
Temperature Dewpoint
20°C / 68°F 15°C / 59°F
Humidity Altimeter Pressure
73% 29.91" Hg 1013 hPa